OERK/RUH METAR and TAF weather

Enter ICAO airport designator
Station Type Date Time Source
OERK METAR 2019/10/15 03:00 UTC NOAA

OERK 150300Z 00000KT 8000 SKC 22/12 Q1019 NOSIG


Station Type Date Time Source
OERK Decoded METAR 2019/10/15 03:00 UTC NOAA

King Khaled International Airport, Saudi Arabia (OERK) 24-56N 046-43E 612M
Oct 14, 2019 - 11:00 PM EDT / 2019.10.15 0300 UTC
Wind: Calm:0
Visibility: 4 mile(s):0
Sky conditions: clear
Temperature: 71 F (22 C)
Dew Point: 53 F (12 C)
Relative Humidity: 53%
Pressure (altimeter): 30.09 in. Hg (1019 hPa)
ob: OERK 150300Z 00000KT 8000 SKC 22/12 Q1019 NOSIG
cycle: 3

Station Type Date Time Source
OERK TAF 2019/10/14 18:06 UTC NOAA

TAF OERK 141700Z 1418/1524 09010KT 8000 FEW040
BECMG 1421/1423 VRB03KT

Example: see airport list